Siloam, Georgia
Current Conditions -  °F | °C
As of 4:35 PM on Monday 24 Nov 2014 (Local Time) from K3J7 Reporting Station
Clear Clear  
Wind Chill: 77°   Ceiling: Unl
Heat Index: 79°   Visibility: 10mi
Dew Point: 55°   Wind: 5mph
Humidity: 47%   Direction: 200°SSW
Pressure: 29.78"   Gusts: NA
Location:  33.54°N, 83.08°W
Report Text: K3J7 242135Z AUTO 20004KT 10SM CLR 25/13 A2978 RMK AO2 LTG DSNT SE
Loading
Personal Weather Stations






























Interactive Weather Map New forecast layout! Learn more

10-Day Weather Forecast

Advertisements
Track Severe Weather on mobile